Star, Idaho
Current Conditions -  °F | °C
As of 6:15 AM on Wednesday 22 Oct 2014 (Local Time) from KMAN Reporting Station
Clear Clear  
Wind Chill: 35°   Ceiling: Unl
Heat Index: 39°   Visibility: 10mi
Dew Point: 39°   Wind: 6mph
Humidity: 100%   Direction: 150°SSE
Pressure: 30.08"   Gusts: NA
Location:  43.69°N, 116.49°W
Report Text: KMAN 221215Z AUTO 15005KT 10SM CLR 04/04 A3008 RMK AO1
Loading
Personal Weather Stations






























Interactive Weather Map New forecast layout! Learn more

10-Day Weather Forecast

Advertisements
Track Severe Weather on mobile